createdAt,value
2018-06-30T00:02:11.851Z,16.18
2018-06-30T00:04:58.212Z,16.21
2018-06-30T00:07:41.609Z,16.13
2018-06-30T00:10:37.718Z,16.08
2018-06-30T00:13:22.653Z,16.04
2018-06-30T00:16:13.325Z,15.99
2018-06-30T00:18:59.404Z,15.91
2018-06-30T00:21:48.751Z,15.78
2018-06-30T00:24:38.085Z,15.84
2018-06-30T00:27:20.774Z,15.84
2018-06-30T00:30:07.778Z,15.85
2018-06-30T00:32:55.495Z,15.80
2018-06-30T00:35:46.084Z,15.80
2018-06-30T00:38:32.059Z,15.82
2018-06-30T00:41:16.577Z,15.91
2018-06-30T00:44:05.259Z,15.90
2018-06-30T00:46:51.130Z,15.87
2018-06-30T00:49:35.038Z,15.90
2018-06-30T00:52:19.527Z,15.86
2018-06-30T00:57:57.922Z,15.86
2018-06-30T01:00:48.789Z,15.77
2018-06-30T01:03:31.119Z,15.83
2018-06-30T01:06:18.657Z,15.84
2018-06-30T01:09:05.256Z,15.87
2018-06-30T01:11:52.012Z,15.86
2018-06-30T01:14:28.751Z,15.85
2018-06-30T01:17:14.008Z,15.89
2018-06-30T01:19:55.960Z,15.92
2018-06-30T01:22:44.475Z,15.89
2018-06-30T01:25:25.455Z,15.92
2018-06-30T01:28:13.252Z,15.86
2018-06-30T01:30:57.325Z,15.88
2018-06-30T01:33:43.711Z,15.87
2018-06-30T01:36:25.417Z,15.87
2018-06-30T01:39:13.165Z,15.83
2018-06-30T01:42:00.488Z,15.79
2018-06-30T01:44:43.545Z,15.88
2018-06-30T01:47:30.538Z,15.78
2018-06-30T01:50:15.575Z,15.79
2018-06-30T01:53:01.893Z,15.82
2018-06-30T01:55:49.817Z,15.84
2018-06-30T01:58:34.431Z,15.85
2018-06-30T02:01:20.625Z,15.89
2018-06-30T02:04:01.972Z,15.85
2018-06-30T02:06:46.760Z,15.87
2018-06-30T02:09:29.434Z,15.84
2018-06-30T02:12:13.247Z,15.78
2018-06-30T02:15:02.331Z,15.72
2018-06-30T02:20:42.248Z,15.54
2018-06-30T02:23:26.065Z,15.59
2018-06-30T02:26:10.049Z,15.58
2018-06-30T02:28:51.375Z,15.59
2018-06-30T02:31:35.691Z,15.61
2018-06-30T02:34:28.208Z,15.56
2018-06-30T02:37:13.441Z,15.57
2018-06-30T02:40:04.107Z,15.49
2018-06-30T02:42:48.155Z,15.44
2018-06-30T02:45:37.248Z,15.46
2018-06-30T02:48:27.184Z,15.48
2018-06-30T02:51:12.472Z,15.40
2018-06-30T02:54:00.494Z,15.45
2018-06-30T02:56:44.855Z,15.38
2018-06-30T02:59:25.221Z,15.38
2018-06-30T03:02:12.233Z,15.35
2018-06-30T03:04:58.389Z,15.33
2018-06-30T03:07:42.921Z,15.33
2018-06-30T03:10:31.983Z,15.40
2018-06-30T03:13:16.529Z,15.42
2018-06-30T03:16:01.808Z,15.40
2018-06-30T03:18:42.601Z,15.46
2018-06-30T03:21:28.314Z,15.48
2018-06-30T03:24:20.996Z,15.47
2018-06-30T03:27:07.553Z,15.55
2018-06-30T03:29:55.635Z,15.57
2018-06-30T03:32:45.479Z,15.59
2018-06-30T03:35:28.835Z,15.64
2018-06-30T03:38:14.443Z,15.62
2018-06-30T03:41:01.329Z,15.70
2018-06-30T03:43:48.745Z,15.80
2018-06-30T03:46:39.212Z,15.85
2018-06-30T03:49:25.593Z,15.81
2018-06-30T03:52:09.782Z,15.85
2018-06-30T03:54:56.307Z,15.72
2018-06-30T03:57:41.886Z,15.72
2018-06-30T04:00:28.007Z,15.71
2018-06-30T04:03:15.107Z,15.74
2018-06-30T04:06:10.910Z,15.82
2018-06-30T04:08:55.819Z,15.83
2018-06-30T04:11:41.675Z,15.81
2018-06-30T04:14:27.952Z,15.90
2018-06-30T06:54:08.168Z,29.41
2018-06-30T06:56:37.154Z,29.33
2018-06-30T06:59:06.052Z,30.06
2018-06-30T07:01:35.042Z,31.67
2018-06-30T07:04:04.087Z,32.59
2018-06-30T07:06:33.310Z,32.11
2018-06-30T07:09:02.594Z,32.29
2018-06-30T07:11:31.547Z,30.99
2018-06-30T07:14:00.517Z,32.04
2018-06-30T07:16:32.318Z,33.66
2018-06-30T07:19:01.250Z,32.95
2018-06-30T07:21:30.171Z,32.31
2018-06-30T07:23:59.190Z,33.47
2018-06-30T07:26:28.195Z,34.52
2018-06-30T07:28:57.337Z,34.77
2018-06-30T07:31:26.412Z,35.42
2018-06-30T07:33:55.403Z,33.54
2018-06-30T07:36:24.359Z,34.46
2018-06-30T07:38:53.349Z,35.33
2018-06-30T07:41:22.311Z,35.20
2018-06-30T07:43:51.343Z,36.64
2018-06-30T07:46:20.284Z,34.54
2018-06-30T07:48:49.212Z,36.21
2018-06-30T07:51:18.227Z,37.31
2018-06-30T07:53:47.198Z,37.68
2018-06-30T07:56:16.116Z,36.28
2018-06-30T07:58:45.028Z,36.17
2018-06-30T08:01:14.090Z,36.34
2018-06-30T08:03:43.036Z,39.12
2018-06-30T08:06:12.003Z,38.05
2018-06-30T08:08:41.107Z,36.55
2018-06-30T08:11:10.079Z,35.57
2018-06-30T08:13:39.090Z,35.26
2018-06-30T08:16:08.002Z,34.09
2018-06-30T08:18:36.935Z,34.77
2018-06-30T08:21:05.973Z,31.84
2018-06-30T08:23:34.955Z,30.60
2018-06-30T08:26:03.964Z,30.06
2018-06-30T08:28:38.371Z,28.78
2018-06-30T08:31:07.340Z,27.62
2018-06-30T08:33:36.312Z,26.51
2018-06-30T08:36:05.308Z,25.64
2018-06-30T08:38:34.421Z,25.48
2018-06-30T08:41:03.382Z,24.98
2018-06-30T08:43:32.412Z,24.92
2018-06-30T08:46:01.393Z,25.16
2018-06-30T08:48:30.407Z,24.98
2018-06-30T08:50:59.381Z,24.47
2018-06-30T08:53:28.387Z,24.70
2018-06-30T08:55:57.351Z,24.47
2018-06-30T08:58:26.341Z,24.38
2018-06-30T09:00:55.279Z,24.37
2018-06-30T09:03:24.224Z,24.33
2018-06-30T09:05:53.306Z,24.27
2018-06-30T09:08:22.444Z,24.59
2018-06-30T09:10:51.529Z,24.55
2018-06-30T09:13:20.468Z,24.37
2018-06-30T09:15:49.390Z,24.42
2018-06-30T09:18:18.351Z,24.48
2018-06-30T09:20:47.342Z,24.60
2018-06-30T09:23:16.304Z,24.72
2018-06-30T09:25:45.261Z,24.50
2018-06-30T09:28:14.214Z,24.47
2018-06-30T09:30:43.173Z,24.46
2018-06-30T09:33:12.096Z,24.42
2018-06-30T09:35:41.056Z,24.64
2018-06-30T09:38:10.045Z,24.51
2018-06-30T09:40:39.069Z,24.63
2018-06-30T09:43:08.197Z,24.71
2018-06-30T09:45:37.320Z,24.51
2018-06-30T09:48:06.363Z,24.56
2018-06-30T09:50:35.364Z,24.49
2018-06-30T09:53:04.389Z,24.74
2018-06-30T09:55:33.334Z,24.47
2018-06-30T09:58:02.320Z,24.31
2018-06-30T10:01:36.431Z,24.43
2018-06-30T10:04:05.398Z,24.74
2018-06-30T10:06:34.407Z,24.80
2018-06-30T10:09:03.877Z,24.73
2018-06-30T10:11:32.834Z,24.59
2018-06-30T10:14:01.792Z,24.72
2018-06-30T10:16:30.764Z,24.66
2018-06-30T10:18:59.808Z,24.65
2018-06-30T10:21:28.841Z,24.79
2018-06-30T10:23:57.803Z,24.81
2018-06-30T10:26:26.881Z,24.81
2018-06-30T10:29:02.568Z,24.92
2018-06-30T10:31:31.600Z,24.85
2018-06-30T10:34:00.525Z,24.94
2018-06-30T10:36:29.517Z,24.93
2018-06-30T10:38:58.531Z,24.98
2018-06-30T10:41:28.131Z,24.92
2018-06-30T10:43:57.069Z,25.00
2018-06-30T10:46:26.101Z,25.11
2018-06-30T10:48:55.018Z,25.14
2018-06-30T10:51:24.048Z,25.16
2018-06-30T10:53:53.054Z,25.07
2018-06-30T10:56:22.108Z,24.92
2018-06-30T10:58:51.238Z,24.94
2018-06-30T11:01:20.138Z,24.99
2018-06-30T11:03:49.113Z,25.14
2018-06-30T11:06:18.069Z,25.02
2018-06-30T11:08:46.960Z,25.16
2018-06-30T11:11:15.909Z,25.32
2018-06-30T11:13:44.846Z,25.33
2018-06-30T11:16:13.765Z,25.31
2018-06-30T11:18:42.756Z,25.36
2018-06-30T11:21:11.806Z,25.35
2018-06-30T11:23:40.753Z,25.51
2018-06-30T11:26:09.949Z,25.50
2018-06-30T11:28:39.117Z,25.43
2018-06-30T11:31:08.278Z,25.43
2018-06-30T11:33:37.230Z,25.66
2018-06-30T11:36:06.314Z,25.57
2018-06-30T11:38:35.249Z,25.58
2018-06-30T11:41:04.290Z,25.72
2018-06-30T11:43:33.242Z,25.82
2018-06-30T11:46:07.681Z,25.77
2018-06-30T11:48:36.656Z,25.81
2018-06-30T11:51:05.835Z,25.79
2018-06-30T11:53:34.790Z,25.79
2018-06-30T11:56:03.758Z,25.81
2018-06-30T11:58:32.837Z,25.89
2018-06-30T12:01:01.806Z,26.00
2018-06-30T12:03:30.925Z,25.92
2018-06-30T12:05:59.786Z,26.04
2018-06-30T12:08:28.821Z,26.00
2018-06-30T12:10:58.084Z,26.12
2018-06-30T12:13:27.098Z,25.96
2018-06-30T12:15:56.110Z,26.12
2018-06-30T12:18:25.080Z,26.24
2018-06-30T12:20:54.159Z,26.17
2018-06-30T12:23:23.041Z,26.13
2018-06-30T12:25:51.972Z,26.24
2018-06-30T12:28:20.959Z,26.24
2018-06-30T12:30:49.881Z,26.17
2018-06-30T12:33:18.844Z,26.13
2018-06-30T12:35:47.940Z,26.24
2018-06-30T12:38:16.880Z,26.24
2018-06-30T12:40:46.096Z,26.37
2018-06-30T12:43:15.082Z,26.45
2018-06-30T12:45:44.339Z,26.50
2018-06-30T12:48:13.380Z,26.49
2018-06-30T12:50:42.367Z,26.50
2018-06-30T12:53:11.262Z,26.56
2018-06-30T12:55:40.289Z,26.52
2018-06-30T12:58:09.348Z,26.51
2018-06-30T13:00:38.339Z,26.66
2018-06-30T13:03:07.374Z,26.53
2018-06-30T13:05:36.297Z,26.60
2018-06-30T13:08:05.299Z,26.67
2018-06-30T13:10:34.318Z,26.58
2018-06-30T13:13:03.335Z,26.54
2018-06-30T13:15:32.342Z,26.48
2018-06-30T13:18:01.330Z,26.66
2018-06-30T13:20:30.457Z,26.83
2018-06-30T13:22:59.444Z,26.89
2018-06-30T13:25:28.472Z,26.75
2018-06-30T13:27:57.398Z,26.80
2018-06-30T13:30:26.359Z,26.94
2018-06-30T13:32:55.280Z,27.00
2018-06-30T13:35:24.257Z,26.98
2018-06-30T13:37:53.441Z,26.91
2018-06-30T13:40:22.356Z,26.86
2018-06-30T13:42:51.384Z,26.95
2018-06-30T13:45:20.336Z,26.91
2018-06-30T13:47:49.504Z,26.98
2018-06-30T13:50:19.561Z,26.98
2018-06-30T13:52:48.497Z,27.02
2018-06-30T13:55:17.614Z,26.98
2018-06-30T13:57:46.541Z,27.10
2018-06-30T14:00:15.887Z,27.22
2018-06-30T14:02:44.900Z,27.25
2018-06-30T14:05:13.840Z,27.21
2018-06-30T14:07:42.814Z,27.25
2018-06-30T14:10:11.864Z,27.10
2018-06-30T14:12:41.090Z,27.09
2018-06-30T14:15:10.675Z,27.17
2018-06-30T14:17:39.944Z,27.21
2018-06-30T14:20:09.882Z,27.28
2018-06-30T14:22:38.792Z,27.26
2018-06-30T14:25:08.195Z,27.34
2018-06-30T14:27:37.180Z,27.40
2018-06-30T14:30:08.819Z,27.43
2018-06-30T14:32:37.887Z,27.53
2018-06-30T14:35:07.151Z,27.54
2018-06-30T14:37:36.148Z,27.43
2018-06-30T14:40:05.645Z,27.25
2018-06-30T14:42:34.660Z,27.44
2018-06-30T14:45:03.711Z,27.42
2018-06-30T14:47:32.729Z,27.50
2018-06-30T14:50:01.723Z,27.65
2018-06-30T14:52:30.676Z,27.65
2018-06-30T14:54:59.649Z,27.78
2018-06-30T14:57:28.635Z,27.90
2018-06-30T14:59:57.690Z,27.91
2018-06-30T15:02:26.643Z,27.99
2018-06-30T15:04:55.575Z,27.68
2018-06-30T15:07:24.543Z,27.60
2018-06-30T15:09:53.482Z,27.56
2018-06-30T15:12:22.574Z,27.54
2018-06-30T15:14:51.493Z,27.60
2018-06-30T15:17:20.553Z,27.63
2018-06-30T15:19:49.551Z,27.73
2018-06-30T15:22:18.474Z,27.85
2018-06-30T15:24:47.399Z,27.95
2018-06-30T15:27:16.341Z,28.00
2018-06-30T15:29:45.302Z,27.84
2018-06-30T15:32:14.327Z,27.80
2018-06-30T15:34:43.563Z,27.84
2018-06-30T15:37:12.472Z,27.91
2018-06-30T15:39:41.487Z,27.86
2018-06-30T15:42:10.543Z,28.01
2018-06-30T15:44:39.565Z,27.94
2018-06-30T15:47:08.545Z,27.91
2018-06-30T15:49:37.589Z,27.93
2018-06-30T15:52:06.728Z,27.99
2018-06-30T15:54:35.656Z,28.01
2018-06-30T15:57:04.675Z,28.06
2018-06-30T15:59:33.731Z,27.94
2018-06-30T16:02:02.737Z,28.02
2018-06-30T16:04:31.757Z,27.82
2018-06-30T16:07:00.891Z,27.82
2018-06-30T16:09:29.824Z,27.79
2018-06-30T16:11:58.797Z,27.75
2018-06-30T16:14:27.909Z,27.86
2018-06-30T16:16:56.901Z,27.96
2018-06-30T16:19:25.877Z,27.91
2018-06-30T16:21:55.006Z,27.86
2018-06-30T16:24:23.997Z,27.88
2018-06-30T16:26:53.020Z,27.83
2018-06-30T16:29:22.130Z,27.83
2018-06-30T16:31:51.071Z,27.70
2018-06-30T16:34:20.075Z,27.73
2018-06-30T16:36:48.965Z,27.68
2018-06-30T16:39:17.895Z,27.74
2018-06-30T16:41:46.867Z,27.72
2018-06-30T16:44:16.007Z,27.82
2018-06-30T16:46:44.974Z,27.76
2018-06-30T16:49:13.970Z,27.68
2018-06-30T16:51:42.889Z,27.69
2018-06-30T16:54:11.825Z,27.67
2018-06-30T16:56:40.807Z,27.65
2018-06-30T16:59:09.731Z,27.57
2018-06-30T17:01:38.678Z,27.67
2018-06-30T17:04:08.175Z,27.71
2018-06-30T17:06:37.179Z,27.67
2018-06-30T17:09:09.494Z,27.65
2018-06-30T17:11:38.446Z,27.53
2018-06-30T17:14:07.433Z,27.53
2018-06-30T17:16:36.474Z,27.48
2018-06-30T17:19:05.439Z,27.61
2018-06-30T17:21:35.002Z,27.63
2018-06-30T17:24:04.345Z,27.50
2018-06-30T17:26:33.273Z,27.49
2018-06-30T17:29:02.336Z,27.56
2018-06-30T17:31:31.353Z,27.59
2018-06-30T17:34:00.387Z,27.46
2018-06-30T17:36:29.394Z,27.46
2018-06-30T17:38:58.417Z,27.44
2018-06-30T17:41:27.517Z,27.39
2018-06-30T17:43:56.443Z,27.36
2018-06-30T17:46:25.535Z,27.38
2018-06-30T17:48:54.649Z,27.38
2018-06-30T17:51:23.733Z,27.41
2018-06-30T17:53:52.714Z,27.35
2018-06-30T17:56:21.736Z,27.32
2018-06-30T17:58:50.939Z,27.29
2018-06-30T18:01:19.915Z,27.22
2018-06-30T18:03:49.064Z,27.27
2018-06-30T18:06:18.011Z,27.19
2018-06-30T18:08:47.036Z,27.12
2018-06-30T18:11:15.969Z,27.18
2018-06-30T18:13:44.855Z,27.17
2018-06-30T18:16:13.836Z,27.18
2018-06-30T18:18:42.811Z,27.07
2018-06-30T18:21:11.769Z,27.06
2018-06-30T18:23:40.730Z,27.03
2018-06-30T18:26:09.641Z,27.05
2018-06-30T18:28:38.715Z,27.05
2018-06-30T18:31:07.753Z,27.05
2018-06-30T18:33:36.740Z,27.01
2018-06-30T18:36:06.081Z,26.98
2018-06-30T18:38:35.080Z,26.90
2018-06-30T18:41:04.051Z,26.87
2018-06-30T18:43:33.057Z,26.88
2018-06-30T18:46:02.031Z,26.81
2018-06-30T18:48:31.037Z,26.76
2018-06-30T18:51:00.837Z,26.74
2018-06-30T18:53:29.851Z,26.69
2018-06-30T18:55:58.786Z,26.66
2018-06-30T18:58:27.827Z,26.64
2018-06-30T19:00:56.746Z,26.62
2018-06-30T19:03:25.699Z,26.57
2018-06-30T19:05:54.680Z,26.53
2018-06-30T19:08:23.750Z,26.52
2018-06-30T19:10:52.715Z,26.46
2018-06-30T19:13:21.607Z,26.42
2018-06-30T19:15:50.597Z,26.34
2018-06-30T19:18:19.553Z,26.25
2018-06-30T19:20:48.614Z,26.22
2018-06-30T19:23:17.513Z,26.18
2018-06-30T19:25:46.495Z,26.12
2018-06-30T19:28:15.417Z,26.07
2018-06-30T19:30:44.462Z,26.02
2018-06-30T19:33:13.383Z,25.99
2018-06-30T19:35:42.397Z,25.95
2018-06-30T19:38:11.352Z,25.86
2018-06-30T19:40:40.367Z,25.82
2018-06-30T19:43:09.241Z,25.75
2018-06-30T19:45:38.339Z,25.68
2018-06-30T19:48:07.717Z,25.63
2018-06-30T19:50:36.817Z,25.54
2018-06-30T19:53:06.026Z,25.51
2018-06-30T19:55:34.875Z,25.43
2018-06-30T19:58:03.844Z,25.37
2018-06-30T20:00:32.857Z,25.31
2018-06-30T20:03:01.806Z,25.28
2018-06-30T20:05:30.725Z,25.18
2018-06-30T20:07:59.791Z,25.14
2018-06-30T20:10:28.811Z,25.09
2018-06-30T20:12:57.779Z,25.02
2018-06-30T20:15:26.773Z,24.91
2018-06-30T20:17:55.716Z,24.81
2018-06-30T20:20:24.671Z,24.77
2018-06-30T20:22:53.685Z,24.73
2018-06-30T20:25:22.595Z,24.63
2018-06-30T20:27:51.573Z,24.57
2018-06-30T20:30:20.730Z,24.53
2018-06-30T20:32:49.699Z,24.49
2018-06-30T20:35:18.691Z,24.37
2018-06-30T20:37:47.659Z,24.36
2018-06-30T20:40:16.617Z,24.32
2018-06-30T20:42:45.620Z,24.27
2018-06-30T20:45:14.701Z,24.19
2018-06-30T20:47:43.752Z,24.16
2018-06-30T20:50:12.703Z,24.09
2018-06-30T20:52:41.774Z,24.04
2018-06-30T20:55:10.715Z,23.94
2018-06-30T20:57:39.673Z,23.91
2018-06-30T21:00:08.614Z,23.83
2018-06-30T21:02:37.656Z,23.82
2018-06-30T21:05:06.689Z,23.72
2018-06-30T21:07:35.857Z,23.61
2018-06-30T21:10:05.425Z,23.52
2018-06-30T21:12:34.348Z,23.49
2018-06-30T21:15:03.439Z,23.40
2018-06-30T21:17:32.361Z,23.40
2018-06-30T21:20:01.249Z,23.32
2018-06-30T21:22:30.248Z,23.29
2018-06-30T21:24:59.194Z,23.26
2018-06-30T21:27:28.124Z,23.21
2018-06-30T21:29:57.116Z,23.13
2018-06-30T21:32:26.032Z,23.07
2018-06-30T21:34:55.010Z,23.05
2018-06-30T21:37:24.004Z,22.99
2018-06-30T21:39:52.980Z,22.97
2018-06-30T21:42:21.931Z,22.89
2018-06-30T21:44:50.983Z,22.94
2018-06-30T21:47:19.947Z,22.85
2018-06-30T21:49:48.887Z,22.81
2018-06-30T21:52:17.854Z,22.78
2018-06-30T21:54:46.820Z,22.76
2018-06-30T21:57:15.762Z,22.70
2018-06-30T21:59:44.756Z,22.67
2018-06-30T22:02:13.846Z,22.57
2018-06-30T22:04:42.786Z,22.58
2018-06-30T22:07:11.900Z,22.59
2018-06-30T22:09:40.968Z,22.56
2018-06-30T22:12:09.948Z,22.50
2018-06-30T22:14:38.954Z,22.49
2018-06-30T22:17:07.974Z,22.45
2018-06-30T22:19:36.909Z,22.46
2018-06-30T22:22:06.092Z,22.28
2018-06-30T22:24:35.064Z,22.28
2018-06-30T22:27:04.184Z,22.21
2018-06-30T22:29:33.126Z,22.18
2018-06-30T22:32:02.080Z,22.18
2018-06-30T22:34:31.046Z,22.07
2018-06-30T22:37:00.023Z,22.07
2018-06-30T22:39:40.119Z,22.02
2018-06-30T22:42:09.050Z,21.99
2018-06-30T22:44:38.044Z,21.90
2018-06-30T22:47:07.381Z,21.86
2018-06-30T22:49:36.357Z,21.84
2018-06-30T22:52:05.347Z,21.84
2018-06-30T22:54:34.654Z,21.81
2018-06-30T22:57:03.608Z,21.73
2018-06-30T22:59:32.562Z,21.69
2018-06-30T23:02:01.604Z,21.69
2018-06-30T23:04:30.642Z,21.64
2018-06-30T23:06:59.617Z,21.63
2018-06-30T23:09:28.716Z,21.60
2018-06-30T23:11:57.641Z,21.58
2018-06-30T23:14:26.598Z,21.56
2018-06-30T23:16:55.592Z,21.50
2018-06-30T23:19:24.551Z,21.47
2018-06-30T23:21:53.604Z,21.45
2018-06-30T23:24:22.520Z,21.40
2018-06-30T23:26:51.669Z,21.31
2018-06-30T23:29:20.674Z,21.32
2018-06-30T23:31:49.674Z,21.28
2018-06-30T23:34:18.571Z,21.22
2018-06-30T23:36:47.498Z,21.18
2018-06-30T23:39:16.415Z,21.12
2018-06-30T23:41:45.412Z,21.05
2018-06-30T23:44:14.387Z,20.96
2018-06-30T23:46:43.445Z,20.93
2018-06-30T23:49:12.368Z,20.85
2018-06-30T23:51:41.384Z,20.82
2018-06-30T23:54:10.306Z,20.71
2018-06-30T23:56:39.248Z,20.70
2018-06-30T23:59:08.195Z,20.69
